Clyde, North Carolina
Current Conditions -  °F | °C
As of 12:54 AM on Monday 24 Nov 2014 (Local Time) from KAVL Reporting Station
Scattered Clouds Scattered Clouds  
Wind Chill: 12°   Ceiling: Unl
Heat Index: 12°   Visibility: 10mi
Dew Point: 11°   Wind: 18mph
Humidity: 90%   Direction: 180°S
Pressure: 29.71"   Gusts: 26mph
Location:  35.53°N, 82.91°W
Report Text: KAVL 240554Z AUTO 18016G23KT 10SM SCT038 12/11 A2971 RMK AO2 PK WND 21026/0509 SLP051 60042 T01220106 10133 20089 58006
Loading
Personal Weather Stations






























Interactive Weather Map New forecast layout! Learn more

10-Day Weather Forecast

Advertisements
Track Severe Weather on mobile